createdAt,value
2017-10-24T00:00:22.197Z,12.78
2017-10-24T00:01:21.826Z,12.78
2017-10-24T00:02:21.808Z,12.85
2017-10-24T00:03:21.467Z,12.79
2017-10-24T00:04:21.785Z,12.85
2017-10-24T00:05:22.097Z,12.85
2017-10-24T00:06:21.754Z,12.79
2017-10-24T00:07:21.736Z,12.82
2017-10-24T00:08:22.049Z,12.85
2017-10-24T00:09:21.715Z,12.85
2017-10-24T00:10:21.356Z,12.88
2017-10-24T00:11:22.011Z,12.88
2017-10-24T00:12:21.983Z,12.88
2017-10-24T00:13:21.984Z,12.81
2017-10-24T00:14:21.965Z,12.85
2017-10-24T00:15:21.950Z,12.87
2017-10-24T00:16:21.597Z,12.92
2017-10-24T00:17:21.252Z,12.88
2017-10-24T00:18:21.579Z,12.97
2017-10-24T00:19:21.219Z,12.88
2017-10-24T00:20:21.204Z,12.93
2017-10-24T00:21:21.523Z,12.87
2017-10-24T00:22:21.518Z,12.99
2017-10-24T00:23:21.489Z,12.93
2017-10-24T00:24:21.485Z,12.93
2017-10-24T00:25:21.129Z,12.99
2017-10-24T00:26:21.443Z,12.93
2017-10-24T00:27:21.102Z,12.99
2017-10-24T00:28:21.418Z,12.93
2017-10-24T00:29:21.406Z,12.93
2017-10-24T00:30:21.061Z,12.99
2017-10-24T00:31:21.712Z,12.96
2017-10-24T00:32:21.362Z,13.02
2017-10-24T00:33:21.349Z,13
2017-10-24T00:34:21.684Z,12.99
2017-10-24T00:35:20.987Z,12.96
2017-10-24T00:36:21.635Z,12.92
2017-10-24T00:37:21.288Z,12.95
2017-10-24T00:38:21.266Z,13
2017-10-24T00:39:20.920Z,12.93
2017-10-24T00:40:20.921Z,12.97
2017-10-24T00:41:21.224Z,12.96
2017-10-24T00:42:20.876Z,12.96
2017-10-24T00:43:21.196Z,12.99
2017-10-24T00:44:21.517Z,13.04
2017-10-24T00:45:21.507Z,13
2017-10-24T00:46:21.491Z,13
2017-10-24T00:47:21.474Z,13
2017-10-24T00:48:21.118Z,13.03
2017-10-24T00:49:21.452Z,13.02
2017-10-24T00:50:21.420Z,13
2017-10-24T00:51:20.745Z,12.99
2017-10-24T00:52:21.060Z,13
2017-10-24T00:53:21.074Z,13
2017-10-24T00:54:21.028Z,13.03
2017-10-24T00:55:21.021Z,13.11
2017-10-24T00:56:20.999Z,13.04
2017-10-24T00:57:21.331Z,13.11
2017-10-24T00:58:20.990Z,13.11
2017-10-24T00:59:20.969Z,13.09
2017-10-24T01:00:20.939Z,13.09
2017-10-24T01:01:21.266Z,13.12
2017-10-24T01:02:20.915Z,13.17
2017-10-24T01:03:20.890Z,13.04
2017-10-24T01:04:21.221Z,13.09
2017-10-24T01:05:21.206Z,13.09
2017-10-24T01:06:21.186Z,13.07
2017-10-24T01:07:20.858Z,13.04
2017-10-24T01:08:21.160Z,13.12
2017-10-24T01:09:20.809Z,13.04
2017-10-24T01:10:21.122Z,13.09
2017-10-24T01:11:21.111Z,13.17
2017-10-24T01:12:20.764Z,13.17
2017-10-24T01:13:20.413Z,13.11
2017-10-24T01:14:20.735Z,13.06
2017-10-24T01:15:20.719Z,13.14
2017-10-24T01:16:20.366Z,13.24
2017-10-24T01:17:20.685Z,13.12
2017-10-24T01:18:21.001Z,13.22
2017-10-24T01:19:20.321Z,13.2
2017-10-24T01:20:20.980Z,13.2
2017-10-24T01:21:20.291Z,13.25
2017-10-24T01:22:20.965Z,13.09
2017-10-24T01:23:20.806Z,13.14
2017-10-24T01:24:20.584Z,13.15
2017-10-24T01:25:20.907Z,13.15
2017-10-24T01:26:20.603Z,13.21
2017-10-24T01:27:20.543Z,13.09
2017-10-24T01:28:20.858Z,13.12
2017-10-24T01:29:20.515Z,13.2
2017-10-24T01:30:20.490Z,13.11
2017-10-24T01:31:20.148Z,13.25
2017-10-24T01:32:20.133Z,13.24
2017-10-24T01:33:20.453Z,13.14
2017-10-24T01:34:20.438Z,13.2
2017-10-24T01:35:20.086Z,13.14
2017-10-24T01:36:20.746Z,13.17
2017-10-24T01:37:20.743Z,13.2
2017-10-24T01:38:20.379Z,13.21
2017-10-24T01:39:20.365Z,13.27
2017-10-24T01:40:20.348Z,13.17
2017-10-24T01:41:20.004Z,13.22
2017-10-24T01:42:20.319Z,13.21
2017-10-24T01:43:20.642Z,13.2
2017-10-24T01:44:20.289Z,13.22
2017-10-24T01:45:19.944Z,13.2
2017-10-24T01:46:20.600Z,13.2
2017-10-24T01:47:19.911Z,13.24
2017-10-24T01:48:20.242Z,13.17
2017-10-24T01:49:20.540Z,13.2
2017-10-24T01:50:19.864Z,13.24
2017-10-24T01:51:20.519Z,13.15
2017-10-24T01:52:20.516Z,13.2
2017-10-24T01:53:20.153Z,13.22
2017-10-24T01:54:20.143Z,13.18
2017-10-24T01:55:20.128Z,13.14
2017-10-24T01:56:20.455Z,13.18
2017-10-24T01:57:20.447Z,13.18
2017-10-24T01:58:20.416Z,13.14
2017-10-24T01:59:20.079Z,13.11
2017-10-24T02:00:20.051Z,13.07
2017-10-24T02:01:20.034Z,13.24
2017-10-24T02:02:19.685Z,13.24
2017-10-24T02:03:20.336Z,13.12
2017-10-24T02:04:20.333Z,13.18
2017-10-24T02:05:19.979Z,13.2
2017-10-24T02:06:19.965Z,13.09
2017-10-24T02:07:19.954Z,13.09
2017-10-24T02:08:20.265Z,13.11
2017-10-24T02:09:20.256Z,13.07
2017-10-24T02:10:19.905Z,13.02
2017-10-24T02:11:19.881Z,13.06
2017-10-24T02:12:19.546Z,13.15
2017-10-24T02:13:20.201Z,13.03
2017-10-24T02:14:20.173Z,13.06
2017-10-24T02:15:20.166Z,13.04
2017-10-24T02:16:20.157Z,13.03
2017-10-24T02:17:19.802Z,13.14
2017-10-24T02:18:19.778Z,13.02
2017-10-24T02:19:20.110Z,13.04
2017-10-24T02:20:19.413Z,13.03
2017-10-24T02:21:20.073Z,13.06
2017-10-24T02:22:19.720Z,12.99
2017-10-24T02:23:19.376Z,13
2017-10-24T02:24:19.693Z,12.99
2017-10-24T02:25:19.345Z,12.95
2017-10-24T02:26:19.333Z,12.97
2017-10-24T02:27:19.655Z,12.97
2017-10-24T02:28:19.638Z,12.99
2017-10-24T02:29:19.616Z,13
2017-10-24T02:30:19.944Z,12.97
2017-10-24T02:31:19.591Z,13.03
2017-10-24T02:32:19.596Z,12.99
2017-10-24T02:33:19.570Z,12.99
2017-10-24T02:34:19.540Z,12.99
2017-10-24T02:35:19.866Z,13
2017-10-24T02:36:19.178Z,13.02
2017-10-24T02:37:19.162Z,13.02
2017-10-24T02:38:19.478Z,13
2017-10-24T02:39:19.471Z,13
2017-10-24T02:40:19.461Z,13.03
2017-10-24T02:41:19.441Z,13.07
2017-10-24T02:42:19.423Z,13.12
2017-10-24T02:43:19.759Z,13.06
2017-10-24T02:44:19.729Z,13.09
2017-10-24T02:45:19.709Z,13.12
2017-10-24T02:46:19.364Z,13.02
2017-10-24T02:47:19.348Z,13.04
2017-10-24T02:48:19.339Z,13.12
2017-10-24T02:49:19.323Z,13.11
2017-10-24T02:50:19.308Z,13.04
2017-10-24T02:51:19.634Z,13.04
2017-10-24T02:52:19.613Z,13.09
2017-10-24T02:53:19.603Z,13.09
2017-10-24T02:54:19.590Z,13.11
2017-10-24T02:55:18.904Z,13.06
2017-10-24T02:56:19.217Z,13.07
2017-10-24T02:57:19.543Z,13.09
2017-10-24T02:58:19.191Z,13.14
2017-10-24T02:59:18.833Z,13.09
2017-10-24T03:00:19.503Z,13.07
2017-10-24T03:01:19.487Z,13.09
2017-10-24T03:02:19.128Z,13.07
2017-10-24T03:03:19.112Z,13.11
2017-10-24T03:04:18.766Z,13.11
2017-10-24T03:05:19.417Z,13.03
2017-10-24T03:06:18.742Z,13.06
2017-10-24T03:07:18.751Z,13.07
2017-10-24T03:08:19.384Z,13.14
2017-10-24T03:09:18.696Z,13.02
2017-10-24T03:10:19.347Z,13.17
2017-10-24T03:11:18.989Z,13.03
2017-10-24T03:12:19.002Z,13.14
2017-10-24T03:13:19.300Z,13.07
2017-10-24T03:14:19.297Z,13.06
2017-10-24T03:15:18.943Z,13.12
2017-10-24T03:16:19.255Z,13.03
2017-10-24T03:17:18.575Z,13.17
2017-10-24T03:18:18.889Z,13.06
2017-10-24T03:19:19.205Z,13.11
2017-10-24T03:20:18.863Z,13.11
2017-10-24T03:21:18.843Z,13.06
2017-10-24T03:22:19.160Z,13.11
2017-10-24T03:23:19.351Z,13.09
2017-10-24T03:24:18.795Z,13.06
2017-10-24T03:25:18.783Z,13.11
2017-10-24T03:26:18.773Z,13.09
2017-10-24T03:27:18.751Z,13.06
2017-10-24T03:28:18.736Z,13.09
2017-10-24T03:29:18.390Z,13.04
2017-10-24T03:30:18.713Z,13.07
2017-10-24T03:31:19.040Z,13.03
2017-10-24T03:32:19.015Z,13.06
2017-10-24T03:33:18.330Z,13.03
2017-10-24T03:34:18.983Z,13.09
2017-10-24T03:35:18.976Z,13.02
2017-10-24T03:36:18.646Z,13.09
2017-10-24T03:37:18.609Z,13.09
2017-10-24T03:38:18.591Z,13.07
2017-10-24T03:39:18.578Z,13.07
2017-10-24T03:40:18.225Z,13.06
2017-10-24T03:41:18.552Z,13.11
2017-10-24T03:42:18.557Z,13.2
2017-10-24T03:43:18.517Z,13.17
2017-10-24T03:44:18.171Z,13.07
2017-10-24T03:45:18.826Z,13.15
2017-10-24T03:46:18.473Z,13.2
2017-10-24T03:47:18.797Z,13.24
2017-10-24T03:48:18.110Z,13.27
2017-10-24T03:49:18.776Z,13.12
2017-10-24T03:50:18.081Z,13.14
2017-10-24T03:51:18.398Z,13.09
2017-10-24T03:52:18.728Z,13.25
2017-10-24T03:53:18.709Z,13.15
2017-10-24T03:54:18.360Z,13.12
2017-10-24T03:55:18.340Z,13.12
2017-10-24T03:56:18.667Z,13.14
2017-10-24T03:57:18.657Z,13.17
2017-10-24T03:58:18.632Z,13.17
2017-10-24T03:59:18.614Z,13.09
2017-10-24T04:00:18.271Z,13.21
2017-10-24T04:01:17.918Z,13.24
2017-10-24T04:02:18.242Z,13.12
2017-10-24T04:03:18.555Z,13.14
2017-10-24T04:04:18.554Z,13.17
2017-10-24T04:05:18.522Z,13.12
2017-10-24T04:06:18.177Z,13.18
2017-10-24T04:07:18.512Z,13.22
2017-10-24T04:08:18.493Z,13.24
2017-10-24T04:09:18.470Z,13.09
2017-10-24T04:10:18.121Z,13.12
2017-10-24T04:11:18.447Z,13.15
2017-10-24T04:12:18.432Z,13.12
2017-10-24T04:13:18.077Z,13.11
2017-10-24T04:14:18.061Z,13.21
2017-10-24T04:15:18.386Z,13.11
2017-10-24T04:16:17.698Z,13.18
2017-10-24T04:17:17.687Z,13.07
2017-10-24T04:18:18.333Z,13.07
2017-10-24T04:19:17.989Z,13.15
2017-10-24T04:20:18.301Z,13.18
2017-10-24T04:21:18.298Z,13.24
2017-10-24T04:22:17.939Z,13.11
2017-10-24T04:23:17.595Z,13.21
2017-10-24T04:24:18.250Z,13.21
2017-10-24T04:25:18.236Z,13.18
2017-10-24T04:26:18.217Z,13.15
2017-10-24T04:27:17.871Z,13.22
2017-10-24T04:28:17.523Z,13.21
2017-10-24T04:29:18.176Z,13.14
2017-10-24T04:30:17.826Z,13.25
2017-10-24T04:31:18.147Z,13.21
2017-10-24T04:32:18.132Z,13.21
2017-10-24T04:33:18.118Z,13.18
2017-10-24T04:34:17.774Z,13.14
2017-10-24T04:35:17.752Z,13.2
2017-10-24T04:36:17.398Z,13.18
2017-10-24T04:37:18.064Z,13.18
2017-10-24T04:38:17.712Z,13.29
2017-10-24T04:39:18.026Z,13.22
2017-10-24T04:40:17.679Z,13.22
2017-10-24T04:41:17.673Z,13.25
2017-10-24T04:42:17.984Z,13.22
2017-10-24T04:43:17.965Z,13.24
2017-10-24T04:44:18.053Z,13.2
2017-10-24T04:45:17.608Z,13.2
2017-10-24T04:46:17.588Z,13.27
2017-10-24T04:47:17.909Z,13.32
2017-10-24T04:48:17.553Z,13.25
2017-10-24T04:49:17.877Z,13.32
2017-10-24T04:50:17.206Z,13.3
2017-10-24T04:51:17.194Z,13.3
2017-10-24T04:52:17.496Z,13.4
2017-10-24T04:53:17.151Z,13.24
2017-10-24T04:54:17.463Z,13.32
2017-10-24T04:55:17.801Z,13.36
2017-10-24T04:56:17.441Z,13.32
2017-10-24T04:57:17.768Z,13.36
2017-10-24T04:58:17.081Z,13.41
2017-10-24T04:59:17.400Z,13.36
2017-10-24T05:00:17.380Z,13.36
2017-10-24T05:01:17.037Z,13.29
2017-10-24T05:02:17.371Z,13.4
2017-10-24T05:03:17.693Z,13.38
2017-10-24T05:04:17.337Z,13.36
2017-10-24T05:05:17.305Z,13.38
2017-10-24T05:06:16.965Z,13.32
2017-10-24T05:07:17.618Z,13.29
2017-10-24T05:08:17.605Z,13.33
2017-10-24T05:09:17.255Z,13.4
2017-10-24T05:10:17.569Z,13.37
2017-10-24T05:11:17.556Z,13.37
2017-10-24T05:12:17.562Z,13.4
2017-10-24T05:13:17.188Z,13.4
2017-10-24T05:14:17.537Z,13.37
2017-10-24T05:15:16.835Z,13.32
2017-10-24T05:16:16.819Z,13.32
2017-10-24T05:17:17.469Z,13.38
2017-10-24T05:18:17.120Z,13.36
2017-10-24T05:19:17.101Z,13.38
2017-10-24T05:20:16.751Z,13.44
2017-10-24T05:21:17.413Z,13.3
2017-10-24T05:22:17.391Z,13.52
2017-10-24T05:23:17.257Z,13.41
2017-10-24T05:24:17.360Z,13.46
2017-10-24T05:25:17.019Z,13.51
2017-10-24T05:26:17.015Z,13.46
2017-10-24T05:27:16.988Z,13.52
2017-10-24T05:28:16.977Z,13.46
2017-10-24T05:29:17.040Z,13.47
2017-10-24T05:30:16.967Z,13.47
2017-10-24T05:31:16.942Z,13.52
2017-10-24T05:32:16.919Z,13.46
2017-10-24T05:33:17.229Z,13.52
2017-10-24T05:34:16.883Z,13.51
2017-10-24T05:35:16.532Z,13.47
2017-10-24T05:36:16.858Z,13.51
2017-10-24T05:37:17.175Z,13.49
2017-10-24T05:38:16.828Z,13.46
2017-10-24T05:39:16.478Z,13.55
2017-10-24T05:40:16.815Z,13.46
2017-10-24T05:41:16.794Z,13.52
2017-10-24T05:42:16.771Z,13.55
2017-10-24T05:43:16.747Z,13.54
2017-10-24T05:44:17.214Z,13.59
2017-10-24T05:45:16.391Z,13.56
2017-10-24T05:46:17.051Z,13.56
2017-10-24T05:47:16.696Z,13.51
2017-10-24T05:48:16.347Z,13.47
2017-10-24T05:49:16.674Z,13.61
2017-10-24T05:50:16.665Z,13.56
2017-10-24T05:51:16.976Z,13.52
2017-10-24T05:52:16.626Z,13.58
2017-10-24T05:53:16.276Z,13.58
2017-10-24T05:54:16.600Z,13.58
2017-10-24T05:55:16.937Z,13.59
2017-10-24T05:56:16.571Z,13.61
2017-10-24T05:57:16.892Z,13.61
2017-10-24T05:58:16.873Z,13.61
2017-10-24T05:59:16.519Z,13.61
2017-10-24T06:00:16.849Z,13.62
2017-10-24T06:01:16.843Z,13.61
2017-10-24T06:02:16.478Z,13.61
2017-10-24T06:03:16.793Z,13.59
2017-10-24T06:04:16.128Z,13.59
2017-10-24T06:05:16.778Z,13.63
2017-10-24T06:06:16.437Z,13.65
2017-10-24T06:07:16.410Z,13.58
2017-10-24T06:08:16.391Z,13.62
2017-10-24T06:09:16.374Z,13.61
2017-10-24T06:10:16.026Z,13.7
2017-10-24T06:11:16.359Z,13.56
2017-10-24T06:12:16.003Z,13.7
2017-10-24T06:13:15.984Z,13.67
2017-10-24T06:14:16.643Z,13.71
2017-10-24T06:15:16.291Z,13.59
2017-10-24T06:16:16.611Z,13.62
2017-10-24T06:17:16.592Z,13.63
2017-10-24T06:18:16.254Z,13.58
2017-10-24T06:19:16.570Z,13.65
2017-10-24T06:20:16.559Z,13.61
2017-10-24T06:21:16.198Z,13.51
2017-10-24T06:22:16.189Z,13.63
2017-10-24T06:23:16.173Z,13.61
2017-10-24T06:24:15.830Z,13.71
2017-10-24T06:25:16.487Z,13.63
2017-10-24T06:26:16.137Z,13.59
2017-10-24T06:27:16.445Z,13.65
2017-10-24T06:28:16.110Z,13.61
2017-10-24T06:29:16.084Z,13.73
2017-10-24T06:30:16.401Z,13.69
2017-10-24T06:31:16.380Z,13.65
2017-10-24T06:32:16.381Z,13.73
2017-10-24T06:33:16.042Z,13.76
2017-10-24T06:34:16.353Z,13.79
2017-10-24T06:35:15.812Z,13.7
2017-10-24T06:36:15.981Z,13.71
2017-10-24T06:37:15.639Z,13.74
2017-10-24T06:38:16.321Z,13.71
2017-10-24T06:39:15.614Z,13.76
2017-10-24T06:40:16.269Z,13.77
2017-10-24T06:41:16.279Z,13.67
2017-10-24T06:42:16.230Z,13.77
2017-10-24T06:43:15.553Z,13.84
2017-10-24T06:44:15.869Z,13.65
2017-10-24T06:45:16.188Z,13.73
2017-10-24T06:46:15.505Z,13.76
2017-10-24T06:47:15.833Z,13.7
2017-10-24T06:48:15.811Z,13.71
2017-10-24T06:49:15.459Z,13.74
2017-10-24T06:50:15.929Z,13.77
2017-10-24T06:51:16.096Z,13.84
2017-10-24T06:52:15.424Z,13.8
2017-10-24T06:53:15.733Z,13.79
2017-10-24T06:54:15.716Z,13.79
2017-10-24T06:55:16.052Z,13.87
2017-10-24T06:56:15.700Z,13.79
2017-10-24T06:57:16.008Z,13.81
2017-10-24T06:58:16.002Z,13.79
2017-10-24T06:59:15.322Z,13.81
2017-10-24T07:00:15.972Z,13.84
2017-10-24T07:01:15.948Z,13.81
2017-10-24T07:02:15.948Z,13.87
2017-10-24T07:03:15.590Z,13.8
2017-10-24T07:04:15.907Z,13.81
2017-10-24T07:05:15.912Z,13.79
2017-10-24T07:06:15.550Z,13.87
2017-10-24T07:07:15.862Z,13.8
2017-10-24T07:08:15.856Z,13.91
2017-10-24T07:09:15.163Z,13.83
2017-10-24T07:10:15.822Z,13.81
2017-10-24T07:11:15.476Z,13.91
2017-10-24T07:12:15.125Z,13.81
2017-10-24T07:13:15.113Z,13.81
2017-10-24T07:14:15.430Z,13.77
2017-10-24T07:15:15.422Z,13.83
2017-10-24T07:16:15.742Z,13.87
2017-10-24T07:17:15.399Z,13.87
2017-10-24T07:18:15.044Z,13.83
2017-10-24T07:19:15.372Z,13.88
2017-10-24T07:20:15.023Z,13.89
2017-10-24T07:21:15.671Z,13.87
2017-10-24T07:22:14.976Z,13.81
2017-10-24T07:23:15.514Z,13.88
2017-10-24T07:24:15.289Z,13.83
2017-10-24T07:25:15.605Z,13.84
2017-10-24T07:26:15.256Z,13.83
2017-10-24T07:27:15.251Z,13.79
2017-10-24T07:28:15.560Z,13.77
2017-10-24T07:29:15.557Z,13.8
2017-10-24T07:30:14.883Z,13.83
2017-10-24T07:31:15.536Z,13.79
2017-10-24T07:32:15.175Z,13.81
2017-10-24T07:33:15.502Z,13.8
2017-10-24T07:34:15.476Z,13.81
2017-10-24T07:35:14.812Z,13.8
2017-10-24T07:36:14.782Z,13.81
2017-10-24T07:37:15.119Z,13.8
2017-10-24T07:38:15.411Z,13.83
2017-10-24T07:39:14.759Z,13.8
2017-10-24T07:40:15.385Z,13.83
2017-10-24T07:41:15.064Z,13.89
2017-10-24T07:42:15.020Z,13.79
2017-10-24T07:43:15.038Z,13.79
2017-10-24T07:44:15.348Z,13.87
2017-10-24T07:45:15.327Z,13.8
2017-10-24T07:46:14.968Z,13.87
2017-10-24T07:47:14.615Z,13.81
2017-10-24T07:48:14.936Z,13.8
2017-10-24T07:49:14.975Z,13.81
2017-10-24T07:50:14.907Z,13.83
2017-10-24T07:51:15.222Z,13.83
2017-10-24T07:52:14.878Z,13.83
2017-10-24T07:53:14.860Z,13.79
2017-10-24T07:54:14.848Z,13.84
2017-10-24T07:55:14.829Z,13.87
2017-10-24T07:56:15.153Z,13.91
2017-10-24T07:57:14.804Z,13.92
2017-10-24T07:58:14.786Z,13.96
2017-10-24T07:59:15.111Z,13.89
2017-10-24T08:00:14.755Z,14.02
2017-10-24T08:01:15.080Z,13.95
2017-10-24T08:02:14.394Z,13.95
2017-10-24T08:03:14.375Z,13.94
2017-10-24T08:04:14.381Z,14.01
2017-10-24T08:05:15.037Z,14.02
2017-10-24T08:06:15.019Z,14.04
2017-10-24T08:07:14.661Z,14.12
2017-10-24T08:08:14.977Z,14.04
2017-10-24T08:09:14.633Z,14.1
2017-10-24T08:10:14.629Z,14.12
2017-10-24T08:11:14.610Z,14.14
2017-10-24T08:12:14.604Z,14.07
2017-10-24T08:13:14.571Z,14.07
2017-10-24T08:14:14.904Z,14.12
2017-10-24T08:15:14.219Z,14.16
2017-10-24T08:16:14.867Z,14.21
2017-10-24T08:17:14.513Z,14.29
2017-10-24T08:18:14.180Z,14.21
2017-10-24T08:19:14.824Z,14.25
2017-10-24T08:20:14.469Z,14.27
2017-10-24T08:21:14.468Z,14.34
2017-10-24T08:22:14.446Z,14.21
2017-10-24T08:23:14.434Z,14.28
2017-10-24T08:24:14.089Z,14.25
2017-10-24T08:25:14.406Z,14.25
2017-10-24T08:26:14.401Z,14.34
2017-10-24T08:27:14.048Z,14.24
2017-10-24T08:28:14.708Z,14.28
2017-10-24T08:29:14.375Z,14.32
2017-10-24T08:30:14.333Z,14.32
2017-10-24T08:31:14.340Z,14.42
2017-10-24T08:32:14.312Z,14.39
2017-10-24T08:33:14.304Z,14.37
2017-10-24T08:34:14.276Z,14.37
2017-10-24T08:35:14.269Z,14.38
2017-10-24T08:36:14.258Z,14.38
2017-10-24T08:37:14.237Z,14.47
2017-10-24T08:38:14.572Z,14.44
2017-10-24T08:39:14.222Z,14.44
2017-10-24T08:40:14.531Z,14.47
2017-10-24T08:41:14.185Z,14.43
2017-10-24T08:42:14.171Z,14.49
2017-10-24T08:43:14.162Z,14.56
2017-10-24T08:44:14.481Z,14.53
2017-10-24T08:45:14.130Z,14.49
2017-10-24T08:46:14.450Z,14.54
2017-10-24T08:47:14.444Z,14.52
2017-10-24T08:48:14.422Z,14.61
2017-10-24T08:49:13.738Z,14.71
2017-10-24T08:50:14.392Z,14.71
2017-10-24T08:51:14.045Z,14.72
2017-10-24T08:52:14.378Z,14.74
2017-10-24T08:53:13.688Z,14.72
2017-10-24T08:54:14.341Z,14.78
2017-10-24T08:55:13.663Z,14.78
2017-10-24T08:56:13.989Z,14.87
2017-10-24T08:57:14.321Z,14.87
2017-10-24T08:58:13.953Z,14.88
2017-10-24T08:59:13.944Z,14.93
2017-10-24T09:00:13.596Z,14.93
2017-10-24T09:01:13.910Z,15.01
2017-10-24T09:02:13.903Z,15.02
2017-10-24T09:03:13.888Z,15.06
2017-10-24T09:04:14.210Z,15.13
2017-10-24T09:05:14.188Z,15.12
2017-10-24T09:06:14.194Z,15.17
2017-10-24T09:07:13.497Z,15.12
2017-10-24T09:08:14.152Z,15.27
2017-10-24T09:09:13.809Z,15.24
2017-10-24T09:10:14.130Z,15.26
2017-10-24T09:11:13.449Z,15.24
2017-10-24T09:12:13.437Z,15.31
2017-10-24T09:13:14.092Z,15.3
2017-10-24T09:14:13.743Z,15.3
2017-10-24T09:15:13.739Z,15.3
2017-10-24T09:16:13.724Z,15.31
2017-10-24T09:17:13.367Z,15.43
2017-10-24T09:18:13.360Z,15.38
2017-10-24T09:19:13.681Z,15.28
2017-10-24T09:20:13.674Z,15.33
2017-10-24T09:21:14.016Z,15.38
2017-10-24T09:22:13.638Z,15.43
2017-10-24T09:23:14.032Z,15.38
2017-10-24T09:24:13.614Z,15.43
2017-10-24T09:25:13.943Z,15.41
2017-10-24T09:26:13.588Z,15.3
2017-10-24T09:27:13.912Z,15.43
2017-10-24T09:28:13.897Z,15.31
2017-10-24T09:29:13.891Z,15.31
2017-10-24T09:30:13.202Z,15.48
2017-10-24T09:31:13.854Z,15.48
2017-10-24T09:32:13.507Z,15.43
2017-10-24T09:33:13.494Z,15.42
2017-10-24T09:34:13.494Z,15.49
2017-10-24T09:35:13.148Z,15.48
2017-10-24T09:36:13.808Z,15.49
2017-10-24T09:37:13.450Z,15.42
2017-10-24T09:38:13.431Z,15.43
2017-10-24T09:39:13.751Z,15.52
2017-10-24T09:40:13.741Z,15.59
2017-10-24T09:41:13.727Z,15.49
2017-10-24T09:42:13.382Z,15.52
2017-10-24T09:43:13.039Z,15.54
2017-10-24T09:44:13.360Z,15.51
2017-10-24T09:45:13.679Z,15.54
2017-10-24T09:46:12.998Z,15.45
2017-10-24T09:47:13.327Z,15.51
2017-10-24T09:48:13.635Z,15.57
2017-10-24T09:49:13.290Z,15.56
2017-10-24T09:50:12.954Z,15.51
2017-10-24T09:51:13.272Z,15.49
2017-10-24T09:52:13.588Z,15.52
2017-10-24T09:53:13.270Z,15.52
2017-10-24T09:54:13.559Z,15.54
2017-10-24T09:55:13.212Z,15.59
2017-10-24T09:56:13.535Z,15.52
2017-10-24T09:57:12.857Z,15.63
2017-10-24T09:58:13.508Z,15.61
2017-10-24T09:59:13.159Z,15.54
2017-10-24T10:00:13.478Z,15.54
2017-10-24T10:01:13.134Z,15.64
2017-10-24T10:02:13.469Z,15.6
2017-10-24T10:03:12.783Z,15.52
2017-10-24T10:04:13.094Z,15.6
2017-10-24T10:05:12.798Z,15.7
2017-10-24T10:06:13.440Z,15.68
2017-10-24T10:07:13.397Z,15.57
2017-10-24T10:08:13.389Z,15.48
2017-10-24T10:09:12.723Z,15.48
2017-10-24T10:10:13.024Z,15.43
2017-10-24T10:11:13.017Z,15.49
2017-10-24T10:12:13.338Z,15.41
2017-10-24T10:13:12.656Z,15.49
2017-10-24T10:14:12.642Z,15.49
2017-10-24T10:15:12.972Z,15.43
2017-10-24T10:16:12.959Z,15.49
2017-10-24T10:17:12.624Z,15.51
2017-10-24T10:18:12.591Z,15.59
2017-10-24T10:19:13.236Z,15.59
2017-10-24T10:20:13.257Z,15.68
2017-10-24T10:21:12.546Z,15.74
2017-10-24T10:22:12.864Z,15.76
2017-10-24T10:23:12.858Z,15.89
2017-10-24T10:24:12.836Z,15.86
2017-10-24T10:25:12.830Z,15.97
2017-10-24T10:26:13.171Z,16
2017-10-24T10:27:12.805Z,16.15
2017-10-24T10:28:12.459Z,16.14
2017-10-24T10:29:12.799Z,16.18
2017-10-24T10:30:12.433Z,16.25
2017-10-24T10:31:13.150Z,16.3
2017-10-24T10:32:13.082Z,16.3
2017-10-24T10:33:12.749Z,16.37
2017-10-24T10:34:12.729Z,16.33
2017-10-24T10:35:12.732Z,16.38
2017-10-24T10:36:12.356Z,16.38
2017-10-24T10:37:12.687Z,16.37
2017-10-24T10:38:12.677Z,16.4
2017-10-24T10:39:12.997Z,16.42
2017-10-24T10:40:12.993Z,16.44
2017-10-24T10:41:12.989Z,16.4
2017-10-24T10:42:12.623Z,16.48
2017-10-24T10:43:12.952Z,16.41
2017-10-24T10:44:12.262Z,16.35
2017-10-24T10:45:12.950Z,16.42
2017-10-24T10:46:12.915Z,16.49
2017-10-24T10:47:12.589Z,16.49
2017-10-24T10:48:12.896Z,16.58
2017-10-24T10:49:12.908Z,16.48
2017-10-24T10:50:12.864Z,16.56
2017-10-24T10:51:12.529Z,16.49
2017-10-24T10:52:12.841Z,16.58
2017-10-24T10:53:12.492Z,16.63
2017-10-24T10:54:12.827Z,16.77
2017-10-24T10:55:12.471Z,16.81
2017-10-24T10:56:12.791Z,16.88
2017-10-24T10:57:12.779Z,16.83
2017-10-24T10:58:12.095Z,16.86
2017-10-24T10:59:12.754Z,16.92
2017-10-24T11:00:12.077Z,17
2017-10-24T11:01:12.401Z,17.14
2017-10-24T11:02:12.728Z,17.22
2017-10-24T11:03:12.383Z,17.25
2017-10-24T11:04:12.383Z,17.23
2017-10-24T11:05:12.356Z,17.32
2017-10-24T11:06:12.348Z,17.4
2017-10-24T11:07:12.670Z,17.5
2017-10-24T11:08:12.658Z,17.57
2017-10-24T11:09:11.978Z,17.57
2017-10-24T11:10:11.963Z,17.53
2017-10-24T11:11:12.296Z,17.54
2017-10-24T11:12:12.275Z,17.64
2017-10-24T11:13:12.611Z,17.59
2017-10-24T11:14:12.258Z,17.71
2017-10-24T11:15:12.252Z,17.85
2017-10-24T11:16:11.907Z,17.81
2017-10-24T11:17:12.558Z,17.79
2017-10-24T11:18:12.232Z,17.88
2017-10-24T11:19:12.221Z,18
2017-10-24T11:20:12.215Z,18.09
2017-10-24T11:21:12.197Z,18.18
2017-10-24T11:22:12.196Z,18.27
2017-10-24T11:23:12.167Z,18.28
2017-10-24T11:24:12.170Z,18.17
2017-10-24T11:25:11.817Z,18.22
2017-10-24T11:26:12.145Z,18.21
2017-10-24T11:27:11.798Z,18.13
2017-10-24T11:28:12.117Z,18.12
2017-10-24T11:29:12.111Z,18.12
2017-10-24T11:30:11.773Z,17.95
2017-10-24T11:31:12.426Z,17.95
2017-10-24T11:32:12.087Z,17.94
2017-10-24T11:33:11.748Z,17.88
2017-10-24T11:34:12.070Z,17.79
2017-10-24T11:35:12.054Z,17.79
2017-10-24T11:36:12.050Z,17.91
2017-10-24T11:37:11.697Z,17.79
2017-10-24T11:38:12.393Z,17.78
2017-10-24T11:39:11.685Z,17.84
2017-10-24T11:40:11.999Z,17.87
2017-10-24T11:41:11.990Z,17.87
2017-10-24T11:42:11.653Z,17.82
2017-10-24T11:43:11.985Z,17.85
2017-10-24T11:44:11.957Z,17.73
2017-10-24T11:45:11.949Z,17.81
2017-10-24T11:46:11.611Z,17.78
2017-10-24T11:47:11.604Z,17.78
2017-10-24T11:48:11.927Z,17.76
2017-10-24T11:49:11.908Z,17.74
2017-10-24T11:50:11.899Z,17.64
2017-10-24T11:51:11.565Z,17.71
2017-10-24T11:52:11.547Z,17.66
2017-10-24T11:53:12.214Z,17.66
2017-10-24T11:54:11.865Z,17.54
2017-10-24T11:55:12.191Z,17.57
2017-10-24T11:56:11.832Z,17.64
2017-10-24T11:57:11.503Z,17.57
2017-10-24T11:58:11.827Z,17.54
2017-10-24T11:59:11.805Z,17.48
2017-10-24T12:00:11.809Z,17.43
2017-10-24T12:01:12.169Z,17.4
2017-10-24T12:02:11.781Z,17.5
2017-10-24T12:03:12.114Z,17.44
2017-10-24T12:04:11.752Z,17.44
2017-10-24T12:05:12.094Z,17.53
2017-10-24T12:06:12.085Z,17.55
2017-10-24T12:07:12.056Z,17.35
2017-10-24T12:08:11.373Z,17.41
2017-10-24T12:09:12.039Z,17.36
2017-10-24T12:10:12.031Z,17.38
2017-10-24T12:11:11.683Z,17.26
2017-10-24T12:12:12.000Z,17.35
2017-10-24T12:13:11.994Z,17.22
2017-10-24T12:14:11.310Z,17.14
2017-10-24T12:15:11.637Z,17.08
2017-10-24T12:16:11.956Z,17.07
2017-10-24T12:17:11.608Z,17.1
2017-10-24T12:18:11.594Z,17.08
2017-10-24T12:19:11.931Z,17
2017-10-24T12:20:11.912Z,16.98
2017-10-24T12:21:11.568Z,16.93
2017-10-24T12:22:11.217Z,16.99
2017-10-24T12:23:11.544Z,16.83
2017-10-24T12:24:11.870Z,16.86
2017-10-24T12:25:11.185Z,16.8
2017-10-24T12:26:11.170Z,16.77
2017-10-24T12:27:11.493Z,16.85
2017-10-24T12:28:11.483Z,16.8
2017-10-24T12:29:11.472Z,16.78
2017-10-24T12:30:11.461Z,16.8
2017-10-24T12:31:11.783Z,16.88
2017-10-24T12:32:11.773Z,16.88
2017-10-24T12:33:11.085Z,16.85
2017-10-24T12:34:11.082Z,16.86
2017-10-24T12:35:11.398Z,16.77
2017-10-24T12:36:11.722Z,16.8
2017-10-24T12:37:11.042Z,16.81
2017-10-24T12:38:11.697Z,16.85
2017-10-24T12:39:11.362Z,16.86
2017-10-24T12:40:11.331Z,16.86
2017-10-24T12:41:10.993Z,16.86
2017-10-24T12:42:10.978Z,16.86
2017-10-24T12:43:11.299Z,16.86
2017-10-24T12:44:11.621Z,16.88
2017-10-24T12:45:11.275Z,16.86
2017-10-24T12:46:11.261Z,16.86
2017-10-24T12:47:11.249Z,16.86
2017-10-24T12:48:11.242Z,16.86
2017-10-24T12:49:10.901Z,16.86
2017-10-24T12:50:10.885Z,16.92
2017-10-24T12:51:11.206Z,16.88
2017-10-24T12:52:11.190Z,16.81
2017-10-24T12:53:11.180Z,16.78
2017-10-24T12:54:11.174Z,16.86
2017-10-24T12:55:11.490Z,16.65
2017-10-24T12:56:11.481Z,16.81